LEGR/GRX METAR and TAF weather

Enter ICAO airport designator
Station Type Date Time Source
LEGR METAR 2021/05/11 00:00 UTC NOAA

LEGR 110000Z AUTO 27009KT 240V300 8000 BKN060 11/08 Q1019


Station Type Date Time Source
LEGR Decoded METAR 2021/05/11 00:00 UTC NOAA

Granada / Aeropuerto, Spain (LEGR) 37-11N 003-47W 570M
May 10, 2021 - 08:00 PM EDT / 2021.05.11 0000 UTC
Wind: from the W (270 degrees) at 10 MPH (9 KT) (direction variable):0
Visibility: 4 mile(s):0
Sky conditions: mostly cloudy
Temperature: 51 F (11 C)
Dew Point: 46 F (8 C)
Relative Humidity: 81%
Pressure (altimeter): 30.09 in. Hg (1019 hPa)
ob: LEGR 110000Z AUTO 27009KT 240V300 8000 BKN060 11/08 Q1019
cycle: 0

Station Type Date Time Source
LEGR TAF 2021/05/10 18:27 UTC NOAA

TAF LEGR 101700Z 1018/1118 28015KT 9999 FEW025 SCT050 TX20/1115Z TN08/1106Z PROB30
TEMPO 1018/1022 28016G26KT 4000 SHRA SCT040TCU
BECMG 1021/1023 28005KT
BECMG 1106/1109 35010KT

Example: see airport list